createdAt,value
2022-08-25T00:00:44.976Z,0
2022-08-25T00:06:07.314Z,0
2022-08-25T00:11:30.635Z,0
2022-08-25T00:16:56.360Z,0
2022-08-25T00:22:22.032Z,0
2022-08-25T00:27:48.443Z,0
2022-08-25T00:33:11.620Z,0
2022-08-25T00:38:37.568Z,0
2022-08-25T00:44:00.822Z,0
2022-08-25T00:49:25.761Z,0
2022-08-25T00:54:48.061Z,0
2022-08-25T01:00:10.818Z,0
2022-08-25T01:05:35.495Z,0
2022-08-25T01:10:58.296Z,0
2022-08-25T01:16:20.859Z,0
2022-08-25T01:21:57.864Z,0
2022-08-25T01:32:42.768Z,0
2022-08-25T01:38:06.053Z,0
2022-08-25T01:43:29.032Z,0
2022-08-25T01:48:54.857Z,0
2022-08-25T01:54:17.422Z,0
2022-08-25T01:59:40.027Z,0
2022-08-25T02:05:03.120Z,0
2022-08-25T02:10:29.932Z,0
2022-08-25T02:15:53.111Z,0
2022-08-25T02:21:15.468Z,0
2022-08-25T02:26:38.289Z,0
2022-08-25T02:32:00.741Z,0
2022-08-25T02:37:23.083Z,0
2022-08-25T02:48:10.992Z,0
2022-08-25T02:53:33.969Z,0
2022-08-25T02:58:56.468Z,0
2022-08-25T03:04:26.913Z,0
2022-08-25T03:09:49.702Z,0
2022-08-25T03:15:30.872Z,0
2022-08-25T03:21:11.867Z,0
2022-08-25T03:26:43.098Z,0
2022-08-25T03:32:05.890Z,0
2022-08-25T03:37:28.936Z,0
2022-08-25T03:48:23.081Z,0
2022-08-25T03:54:03.135Z,0
2022-08-25T03:59:25.700Z,0
2022-08-25T04:04:48.061Z,0
2022-08-25T04:10:11.074Z,0
2022-08-25T04:15:36.023Z,0
2022-08-25T04:26:31.417Z,3
2022-08-25T04:31:54.377Z,10
2022-08-25T04:37:17.498Z,14.3
2022-08-25T04:42:42.461Z,21.1
2022-08-25T04:48:10.752Z,20.3
2022-08-25T04:53:33.447Z,24.7
2022-08-25T04:58:55.962Z,34.8
2022-08-25T05:04:29.042Z,41.4
2022-08-25T05:09:52.601Z,44.2
2022-08-25T05:15:17.401Z,48
2022-08-25T05:20:42.404Z,62.7
2022-08-25T05:26:05.017Z,78.9
2022-08-25T05:31:27.816Z,79.1
2022-08-25T05:36:52.837Z,119.3
2022-08-25T05:42:15.466Z,205.6
2022-08-25T05:47:40.878Z,187.3
2022-08-25T05:53:03.868Z,168.6
2022-08-25T05:58:26.269Z,196.4
2022-08-25T06:03:49.053Z,190.8
2022-08-25T06:19:57.335Z,198.9
2022-08-25T06:25:19.515Z,212.3
2022-08-25T06:30:42.597Z,248.5
2022-08-25T06:36:05.015Z,396.2
2022-08-25T06:41:37.335Z,700.7
2022-08-25T06:47:00.003Z,790.5
2022-08-25T06:52:29.653Z,1964.8
2022-08-25T06:58:11.389Z,457.4
2022-08-25T07:03:35.680Z,1948
2022-08-25T07:08:58.162Z,348.7
2022-08-25T07:14:20.715Z,657.3
2022-08-25T07:19:44.205Z,326.2
2022-08-25T07:25:06.901Z,324
2022-08-25T07:30:29.417Z,424.4
2022-08-25T07:35:52.030Z,490
2022-08-25T07:41:21.836Z,728.7
2022-08-25T07:46:44.518Z,1133.3
2022-08-25T07:52:09.844Z,1115.9
2022-08-25T07:57:33.894Z,1560.9
2022-08-25T08:08:23.993Z,529.8
2022-08-25T08:14:08.518Z,1645.5
2022-08-25T08:19:32.277Z,1803.3
2022-08-25T08:24:57.070Z,1981.9
2022-08-25T08:30:26.641Z,1965.8
2022-08-25T08:35:50.714Z,1901.5
2022-08-25T08:41:13.548Z,1700.4
2022-08-25T08:46:36.570Z,2123.9
2022-08-25T08:52:03.005Z,2142.6
2022-08-25T08:58:04.583Z,2149.9
2022-08-25T09:03:27.926Z,2054.6
2022-08-25T09:08:50.988Z,1900.4
2022-08-25T09:14:16.275Z,2193.6
2022-08-25T09:19:42.285Z,2188.8
2022-08-25T09:30:32.070Z,1945.8
2022-08-25T09:35:57.771Z,2211.2
2022-08-25T09:41:21.697Z,2027.7
2022-08-25T09:46:45.101Z,2117.2
2022-08-25T09:52:12.964Z,2002.3
2022-08-25T09:57:35.255Z,2253.1
2022-08-25T10:02:57.889Z,2342.8
2022-08-25T10:08:25.166Z,2305.1
2022-08-25T10:19:21.383Z,2195.1
2022-08-25T10:24:44.522Z,2685
2022-08-25T10:30:06.656Z,2452.2
2022-08-25T10:35:34.872Z,2272.6
2022-08-25T10:41:00.142Z,2398.3
2022-08-25T10:46:22.828Z,2413.7
2022-08-25T10:51:45.657Z,2444.6
2022-08-25T11:02:42.951Z,1900.5
2022-08-25T11:08:05.218Z,1664.2
2022-08-25T11:13:31.456Z,2048
2022-08-25T11:18:54.515Z,2392.8
2022-08-25T11:24:18.341Z,2248.8
2022-08-25T11:29:40.537Z,1950.4
2022-08-25T11:41:11.682Z,1870.2
2022-08-25T11:46:34.518Z,1908.8
2022-08-25T11:52:03.004Z,1660.7
2022-08-25T11:57:26.959Z,1932.4
2022-08-25T12:02:52.591Z,1872.3
2022-08-25T12:08:14.989Z,1873.6
2022-08-25T12:13:37.252Z,1638.7
2022-08-25T12:19:13.207Z,1653.1
2022-08-25T12:24:36.174Z,1930.6
2022-08-25T12:29:59.375Z,2109.5
2022-08-25T12:36:59.723Z,1676.7
2022-08-25T12:42:26.461Z,1827.5
2022-08-25T12:47:49.276Z,2211.8
2022-08-25T12:53:11.857Z,2113
2022-08-25T12:59:00.539Z,2255.8
2022-08-25T13:04:23.817Z,1977.4
2022-08-25T13:15:41.247Z,2301
2022-08-25T13:27:23.815Z,2498
2022-08-25T13:32:46.491Z,2172.8
2022-08-25T13:38:10.901Z,2576.3
2022-08-25T13:43:49.492Z,2303.5
2022-08-25T13:49:19.214Z,2368.6
2022-08-25T13:54:55.346Z,2263.8
2022-08-25T14:00:32.142Z,1939.3
2022-08-25T14:11:14.711Z,2163.1
2022-08-25T14:16:48.279Z,2060
2022-08-25T14:22:19.988Z,2512.6
2022-08-25T14:28:08.742Z,2502
2022-08-25T14:33:38.688Z,2222.8
2022-08-25T14:45:20.437Z,2052.6
2022-08-25T14:52:13.799Z,343
2022-08-25T15:03:37.652Z,352.2
2022-08-25T15:09:05.241Z,392.8
2022-08-25T15:14:39.026Z,460.1
2022-08-25T15:20:06.495Z,446.6
2022-08-25T15:25:29.905Z,392.8
2022-08-25T15:30:52.327Z,359.3
2022-08-25T15:36:15.561Z,385
2022-08-25T15:41:43.226Z,372.5
2022-08-25T15:47:12.938Z,394.8
2022-08-25T15:52:48.771Z,348.4
2022-08-25T15:58:11.911Z,310.2
2022-08-25T16:03:34.677Z,308.5
2022-08-25T16:14:34.246Z,267.7
2022-08-25T16:19:59.242Z,236
2022-08-25T16:25:24.979Z,277.5
2022-08-25T16:30:53.397Z,275.7
2022-08-25T16:36:32.511Z,266.6
2022-08-25T16:41:55.245Z,282.4
2022-08-25T16:47:26.921Z,283.7
2022-08-25T16:58:17.486Z,226.4
2022-08-25T17:03:44.360Z,214.2
2022-08-25T17:09:24.219Z,184.6
2022-08-25T17:14:46.901Z,153.8
2022-08-25T17:20:13.538Z,133.5
2022-08-25T17:25:42.878Z,133.6
2022-08-25T17:31:06.391Z,117.5
2022-08-25T17:41:45.161Z,51.7
2022-08-25T17:47:07.889Z,36.3
2022-08-25T17:52:32.244Z,31.2
2022-08-25T17:57:54.761Z,24.7
2022-08-25T18:03:17.534Z,22.8
2022-08-25T18:08:40.308Z,21
2022-08-25T18:14:02.901Z,16.5
2022-08-25T18:19:25.651Z,12.9
2022-08-25T18:30:13.890Z,9.8
2022-08-25T18:35:39.554Z,6
2022-08-25T18:41:02.581Z,2
2022-08-25T18:46:25.807Z,0
2022-08-25T18:51:48.635Z,0
2022-08-25T18:57:11.278Z,0
2022-08-25T19:02:45.087Z,0
2022-08-25T19:08:11.645Z,0
2022-08-25T19:13:34.110Z,0
2022-08-25T19:18:58.485Z,0
2022-08-25T19:24:22.015Z,0
2022-08-25T19:29:44.545Z,0
2022-08-25T19:35:07.339Z,0
2022-08-25T19:40:30.420Z,0
2022-08-25T19:46:01.755Z,0
2022-08-25T19:51:26.531Z,0
2022-08-25T19:56:55.761Z,0
2022-08-25T20:02:32.904Z,0
2022-08-25T20:07:56.766Z,0
2022-08-25T20:13:27.771Z,0
2022-08-25T20:24:15.510Z,0
2022-08-25T20:29:39.116Z,0
2022-08-25T20:35:09.824Z,0
2022-08-25T20:40:43.515Z,0
2022-08-25T20:46:12.168Z,0
2022-08-25T20:51:36.189Z,0
2022-08-25T20:57:02.893Z,0
2022-08-25T21:02:31.815Z,0
2022-08-25T21:07:54.535Z,0
2022-08-25T21:18:22.668Z,0
2022-08-25T21:23:45.517Z,0
2022-08-25T21:29:15.569Z,0
2022-08-25T21:34:40.023Z,0
2022-08-25T21:40:10.360Z,0
2022-08-25T21:45:42.238Z,0
2022-08-25T21:51:13.447Z,0
2022-08-25T21:56:36.143Z,0
2022-08-25T22:01:58.573Z,0
2022-08-25T22:12:43.865Z,0
2022-08-25T22:18:06.837Z,0
2022-08-25T22:23:29.518Z,0
2022-08-25T22:29:07.941Z,0
2022-08-25T22:34:32.617Z,0
2022-08-25T22:40:03.780Z,0
2022-08-25T22:45:26.373Z,0
2022-08-25T22:50:49.151Z,0
2022-08-25T22:56:12.146Z,0
2022-08-25T23:01:46.975Z,0
2022-08-25T23:12:13.859Z,0
2022-08-25T23:23:19.995Z,0
2022-08-25T23:28:45.442Z,0
2022-08-25T23:34:08.157Z,0
2022-08-25T23:39:39.838Z,0
2022-08-25T23:45:02.661Z,0
2022-08-25T23:50:25.131Z,0
2022-08-25T23:55:54.084Z,0
